Killbuck, Ohio
Current Conditions -  °F | °C
As of 2:56 PM on Monday 22 Dec 2014 (Local Time) from KBJJ Reporting Station
Overcast Overcast  
Wind Chill: 37°   Ceiling: 4800
Heat Index: 41°   Visibility: 7mi
Dew Point: 33°   Wind: 6mph
Humidity: 73%   Direction: 120°ESE
Pressure: 29.96"   Gusts: NA
Location:  40.5°N, 81.98°W
Report Text: KBJJ 221956Z AUTO 12005KT 7SM OVC048 05/01 A2996 RMK AO2 SLP156 T00500006 TSNO
Loading
Personal Weather Stations






























Interactive Weather Map New forecast layout! Learn more

10-Day Weather Forecast

Advertisements
Track Severe Weather on mobile